createdAt,value
2023-05-09T00:01:19.751Z,10.70
2023-05-09T00:03:43.998Z,10.70
2023-05-09T00:06:08.592Z,10.70
2023-05-09T00:08:33.697Z,10.70
2023-05-09T00:10:57.342Z,10.60
2023-05-09T00:13:21.096Z,10.60
2023-05-09T00:15:44.803Z,10.60
2023-05-09T00:18:09.032Z,10.60
2023-05-09T00:20:34.128Z,10.50
2023-05-09T00:22:57.950Z,10.50
2023-05-09T00:25:22.905Z,10.50
2023-05-09T00:27:46.462Z,10.50
2023-05-09T00:30:10.983Z,10.50
2023-05-09T00:32:35.048Z,10.50
2023-05-09T00:34:59.035Z,10.50
2023-05-09T00:37:22.569Z,10.40
2023-05-09T00:39:46.197Z,10.40
2023-05-09T00:42:11.108Z,10.40
2023-05-09T00:44:34.764Z,10.40
2023-05-09T00:46:58.408Z,10.40
2023-05-09T00:49:22.091Z,10.40
2023-05-09T00:51:45.686Z,10.30
2023-05-09T00:54:10.274Z,10.30
2023-05-09T00:56:33.907Z,10.30
2023-05-09T00:58:58.973Z,10.30
2023-05-09T01:01:22.751Z,10.20
2023-05-09T01:03:47.504Z,10.20
2023-05-09T01:06:19.460Z,10.20
2023-05-09T01:08:51.291Z,10.20
2023-05-09T01:11:26.339Z,10.20
2023-05-09T01:14:09.789Z,10.20
2023-05-09T01:16:43.252Z,10.10
2023-05-09T01:19:28.837Z,10.10
2023-05-09T01:21:54.052Z,10.10
2023-05-09T01:24:54.024Z,10.10
2023-05-09T01:27:33.740Z,10.00
2023-05-09T01:30:01.244Z,10.00
2023-05-09T01:32:28.383Z,10.00
2023-05-09T01:34:56.760Z,10.00
2023-05-09T01:37:25.608Z,10.00
2023-05-09T01:39:52.410Z,10.00
2023-05-09T01:42:18.160Z,9.90
2023-05-09T01:44:45.695Z,9.90
2023-05-09T01:47:12.146Z,9.90
2023-05-09T01:49:37.984Z,9.90
2023-05-09T01:52:07.150Z,9.90
2023-05-09T01:54:32.258Z,9.80
2023-05-09T01:56:57.008Z,9.80
2023-05-09T01:59:21.795Z,9.80
2023-05-09T02:01:46.220Z,9.80
2023-05-09T02:04:12.180Z,9.80
2023-05-09T02:06:36.681Z,9.80
2023-05-09T02:09:01.806Z,9.80
2023-05-09T02:11:25.859Z,9.80
2023-05-09T02:13:50.712Z,9.80
2023-05-09T02:16:14.501Z,9.80
2023-05-09T02:18:38.461Z,9.80
2023-05-09T02:21:04.519Z,9.70
2023-05-09T02:23:28.599Z,9.70
2023-05-09T02:25:54.264Z,9.70
2023-05-09T02:28:20.891Z,9.70
2023-05-09T02:30:47.384Z,9.70
2023-05-09T02:33:13.272Z,9.80
2023-05-09T02:35:37.434Z,9.70
2023-05-09T02:38:03.326Z,9.70
2023-05-09T02:40:28.657Z,9.70
2023-05-09T02:42:52.257Z,9.70
2023-05-09T02:45:16.031Z,9.60
2023-05-09T02:47:40.492Z,9.60
2023-05-09T02:50:04.877Z,9.70
2023-05-09T02:52:29.542Z,9.70
2023-05-09T02:54:54.686Z,9.60
2023-05-09T02:57:18.565Z,9.60
2023-05-09T02:59:42.190Z,9.70
2023-05-09T03:02:06.504Z,9.70
2023-05-09T03:04:30.532Z,9.60
2023-05-09T03:06:54.424Z,9.60
2023-05-09T03:09:18.568Z,9.60
2023-05-09T03:11:43.621Z,9.70
2023-05-09T03:14:08.473Z,9.60
2023-05-09T03:16:32.736Z,9.60
2023-05-09T03:18:56.805Z,9.60
2023-05-09T03:21:20.421Z,9.70
2023-05-09T03:23:44.138Z,9.60
2023-05-09T03:26:07.775Z,9.60
2023-05-09T03:28:32.991Z,9.60
2023-05-09T03:30:59.865Z,9.60
2023-05-09T03:33:24.885Z,9.60
2023-05-09T03:35:49.081Z,9.60
2023-05-09T03:38:12.955Z,9.60
2023-05-09T03:40:36.699Z,9.50
2023-05-09T03:43:04.333Z,9.50
2023-05-09T03:45:29.315Z,9.50
2023-05-09T03:47:53.746Z,9.50
2023-05-09T03:50:17.705Z,9.50
2023-05-09T03:52:41.722Z,9.60
2023-05-09T03:55:06.195Z,9.60
2023-05-09T03:57:32.863Z,9.60
2023-05-09T03:59:56.441Z,9.60
2023-05-09T04:02:21.641Z,9.60
2023-05-09T04:04:46.952Z,9.60
2023-05-09T04:07:11.043Z,9.60
2023-05-09T04:09:34.859Z,9.60
2023-05-09T04:11:58.388Z,9.60
2023-05-09T04:14:22.348Z,9.60
2023-05-09T04:16:45.969Z,9.60
2023-05-09T04:19:11.431Z,9.70
2023-05-09T04:21:35.344Z,9.60
2023-05-09T04:24:00.194Z,9.60
2023-05-09T04:26:32.384Z,9.60
2023-05-09T04:28:56.788Z,9.60
2023-05-09T04:31:20.512Z,9.60
2023-05-09T04:33:47.034Z,9.60
2023-05-09T04:36:12.718Z,9.70
2023-05-09T04:38:36.418Z,9.70
2023-05-09T04:41:03.942Z,9.70
2023-05-09T04:43:28.233Z,9.70
2023-05-09T04:45:51.965Z,9.70
2023-05-09T04:48:16.026Z,9.70
2023-05-09T04:50:39.648Z,9.80
2023-05-09T04:53:04.673Z,9.80
2023-05-09T04:55:28.207Z,9.80
2023-05-09T04:57:53.060Z,9.90
2023-05-09T05:00:18.607Z,10.00
2023-05-09T05:02:44.229Z,10.00
2023-05-09T05:05:12.470Z,10.00
2023-05-09T05:07:39.251Z,10.10
2023-05-09T05:10:06.584Z,10.10
2023-05-09T05:12:31.200Z,10.20
2023-05-09T05:14:55.296Z,10.20
2023-05-09T05:17:19.730Z,10.30
2023-05-09T05:19:43.888Z,10.30
2023-05-09T05:22:08.322Z,10.40
2023-05-09T05:24:34.424Z,10.40
2023-05-09T05:26:59.613Z,10.50
2023-05-09T05:29:23.201Z,10.60
2023-05-09T05:31:46.825Z,10.60
2023-05-09T05:34:10.371Z,10.70
2023-05-09T05:36:34.516Z,10.80
2023-05-09T05:38:58.103Z,10.90
2023-05-09T05:41:22.431Z,10.90
2023-05-09T05:43:48.163Z,11.00
2023-05-09T05:46:12.342Z,11.10
2023-05-09T05:48:35.895Z,11.20
2023-05-09T05:50:59.505Z,11.40
2023-05-09T05:53:26.656Z,11.70
2023-05-09T05:55:50.386Z,12.00
2023-05-09T05:58:14.082Z,12.40
2023-05-09T06:00:39.132Z,12.70
2023-05-09T06:03:03.686Z,13.20
2023-05-09T06:05:38.483Z,13.40
2023-05-09T06:08:02.513Z,13.50
2023-05-09T06:10:26.125Z,13.70
2023-05-09T06:12:49.808Z,13.90
2023-05-09T06:15:14.053Z,14.60
2023-05-09T06:17:43.067Z,15.20
2023-05-09T06:20:08.511Z,15.60
2023-05-09T06:22:32.140Z,16.20
2023-05-09T06:24:55.665Z,16.30
2023-05-09T06:27:19.410Z,16.30
2023-05-09T06:29:42.947Z,16.40
2023-05-09T06:32:06.916Z,16.70
2023-05-09T06:34:31.828Z,17.00
2023-05-09T06:36:55.435Z,17.40
2023-05-09T06:39:19.003Z,17.90
2023-05-09T06:41:42.762Z,17.80
2023-05-09T06:44:06.831Z,17.90
2023-05-09T06:46:30.635Z,17.80
2023-05-09T06:48:54.191Z,18.00
2023-05-09T06:51:19.206Z,17.90
2023-05-09T06:53:42.745Z,18.30
2023-05-09T06:56:06.830Z,17.90
2023-05-09T06:58:30.447Z,17.60
2023-05-09T07:00:54.253Z,18.10
2023-05-09T07:03:17.830Z,18.10
2023-05-09T07:05:41.601Z,18.40
2023-05-09T07:08:06.733Z,18.20
2023-05-09T07:10:30.402Z,18.30
2023-05-09T07:12:53.975Z,17.70
2023-05-09T07:15:28.701Z,17.40
2023-05-09T07:18:00.792Z,16.90
2023-05-09T07:20:24.362Z,16.80
2023-05-09T07:22:48.000Z,16.60
2023-05-09T07:25:13.279Z,16.70
2023-05-09T07:27:37.376Z,16.60
2023-05-09T07:30:00.909Z,16.30
2023-05-09T07:32:24.603Z,16.40
2023-05-09T07:34:48.202Z,16.30
2023-05-09T07:37:13.677Z,16.40
2023-05-09T07:39:38.900Z,16.60
2023-05-09T07:42:04.189Z,16.10
2023-05-09T07:44:27.774Z,16.10
2023-05-09T07:46:51.321Z,16.40
2023-05-09T07:49:14.882Z,16.60
2023-05-09T07:51:38.594Z,16.80
2023-05-09T07:54:02.094Z,17.10
2023-05-09T07:56:26.492Z,17.20
2023-05-09T07:58:52.172Z,17.20
2023-05-09T08:01:17.356Z,17.10
2023-05-09T08:03:40.926Z,16.80
2023-05-09T08:06:05.280Z,16.60
2023-05-09T08:08:28.886Z,16.70
2023-05-09T08:10:52.525Z,16.60
2023-05-09T08:13:16.223Z,16.70
2023-05-09T08:15:41.448Z,16.60
2023-05-09T08:18:05.212Z,16.70
2023-05-09T08:20:28.862Z,16.80
2023-05-09T08:22:52.408Z,16.90
2023-05-09T08:25:18.252Z,17.20
2023-05-09T08:27:41.817Z,17.00
2023-05-09T08:30:07.421Z,17.30
2023-05-09T08:32:32.384Z,17.50
2023-05-09T08:34:55.930Z,17.60
2023-05-09T08:37:19.597Z,17.70
2023-05-09T08:39:43.348Z,17.90
2023-05-09T08:42:08.049Z,17.80
2023-05-09T08:44:32.578Z,17.60
2023-05-09T08:47:00.436Z,17.50
2023-05-09T08:49:26.154Z,17.60
2023-05-09T08:51:50.046Z,17.70
2023-05-09T08:54:13.915Z,17.70
2023-05-09T08:56:37.992Z,18.00
2023-05-09T08:59:01.649Z,17.90
2023-05-09T09:01:26.794Z,17.70
2023-05-09T09:03:50.677Z,17.70
2023-05-09T09:06:16.115Z,17.70
2023-05-09T09:08:40.384Z,17.60
2023-05-09T09:11:04.243Z,17.40
2023-05-09T09:13:29.034Z,17.80
2023-05-09T09:15:56.052Z,18.00
2023-05-09T09:18:24.939Z,17.80
2023-05-09T09:20:53.478Z,17.70
2023-05-09T09:23:21.576Z,18.00
2023-05-09T09:25:48.211Z,18.00
2023-05-09T09:28:12.814Z,18.20
2023-05-09T09:30:36.510Z,18.40
2023-05-09T09:33:00.850Z,18.50
2023-05-09T09:35:24.904Z,18.60
2023-05-09T09:37:48.787Z,18.70
2023-05-09T09:40:14.452Z,18.90
2023-05-09T09:42:49.240Z,18.90
2023-05-09T09:45:15.171Z,18.90
2023-05-09T09:47:39.090Z,18.90
2023-05-09T09:50:13.138Z,19.00
2023-05-09T09:52:37.088Z,19.00
2023-05-09T09:55:01.932Z,19.20
2023-05-09T09:57:41.755Z,19.40
2023-05-09T10:00:07.877Z,19.60
2023-05-09T10:02:31.477Z,19.70
2023-05-09T10:04:55.092Z,19.60
2023-05-09T10:07:24.437Z,19.80
2023-05-09T10:09:49.458Z,20.00
2023-05-09T10:12:14.761Z,20.30
2023-05-09T10:14:43.324Z,20.50
2023-05-09T10:17:07.293Z,20.50
2023-05-09T10:19:32.252Z,20.10
2023-05-09T10:21:58.441Z,20.10
2023-05-09T10:24:29.611Z,20.00
2023-05-09T10:26:54.685Z,20.50
2023-05-09T10:29:25.247Z,20.60
2023-05-09T10:31:56.340Z,20.30
2023-05-09T10:34:21.035Z,20.60
2023-05-09T10:36:45.016Z,20.60
2023-05-09T10:39:09.317Z,20.90
2023-05-09T10:41:33.002Z,20.80
2023-05-09T10:43:58.229Z,21.10
2023-05-09T10:46:22.161Z,21.20
2023-05-09T10:48:48.337Z,21.30
2023-05-09T10:51:13.487Z,21.30
2023-05-09T10:53:45.333Z,21.30
2023-05-09T10:56:09.448Z,21.50
2023-05-09T10:58:36.256Z,21.50
2023-05-09T11:01:02.314Z,21.30
2023-05-09T11:03:27.136Z,21.70
2023-05-09T11:05:54.514Z,21.40
2023-05-09T11:08:27.144Z,21.30
2023-05-09T11:10:51.271Z,21.20
2023-05-09T11:13:15.040Z,21.40
2023-05-09T11:15:52.568Z,21.30
2023-05-09T11:18:17.133Z,21.30
2023-05-09T11:20:45.535Z,21.40
2023-05-09T11:23:11.861Z,21.20
2023-05-09T11:25:36.201Z,20.80
2023-05-09T11:28:02.544Z,21.00
2023-05-09T11:30:38.237Z,21.10
2023-05-09T11:33:02.287Z,21.20
2023-05-09T11:35:27.951Z,21.50
2023-05-09T11:37:55.202Z,21.60
2023-05-09T11:40:22.009Z,21.30
2023-05-09T11:42:47.636Z,21.90
2023-05-09T11:45:12.943Z,22.10
2023-05-09T11:47:38.331Z,21.50
2023-05-09T11:50:01.872Z,21.60
2023-05-09T11:52:25.861Z,21.50
2023-05-09T11:54:49.384Z,21.70
2023-05-09T11:57:17.245Z,22.00
2023-05-09T11:59:41.356Z,21.80
2023-05-09T12:02:07.908Z,22.00
2023-05-09T12:04:33.012Z,21.90
2023-05-09T12:06:59.370Z,21.80
2023-05-09T12:09:22.995Z,21.90
2023-05-09T12:11:50.366Z,21.90
2023-05-09T12:14:28.669Z,22.20
2023-05-09T12:16:52.350Z,22.10
2023-05-09T12:19:15.969Z,22.30
2023-05-09T12:21:41.495Z,22.40
2023-05-09T12:24:05.490Z,22.20
2023-05-09T12:26:29.304Z,22.50
2023-05-09T12:28:53.795Z,22.50
2023-05-09T12:31:19.063Z,22.20
2023-05-09T12:33:43.041Z,22.20
2023-05-09T12:36:10.255Z,22.20
2023-05-09T12:38:34.527Z,21.80
2023-05-09T12:41:03.938Z,22.00
2023-05-09T12:43:27.847Z,21.90
2023-05-09T12:45:54.377Z,22.10
2023-05-09T12:48:20.067Z,22.30
2023-05-09T12:50:48.791Z,21.90
2023-05-09T12:53:12.313Z,22.00
2023-05-09T12:55:41.825Z,21.90
2023-05-09T12:58:05.595Z,22.00
2023-05-09T13:00:29.441Z,22.10
2023-05-09T13:02:53.215Z,22.20
2023-05-09T13:05:21.883Z,22.20
2023-05-09T13:07:47.548Z,22.30
2023-05-09T13:10:15.148Z,22.40
2023-05-09T13:12:39.613Z,22.30
2023-05-09T13:15:03.386Z,22.20
2023-05-09T13:17:27.066Z,22.10
2023-05-09T13:19:50.956Z,22.40
2023-05-09T13:22:17.478Z,22.20
2023-05-09T13:24:41.125Z,22.00
2023-05-09T13:27:05.763Z,22.10
2023-05-09T13:29:29.345Z,21.80
2023-05-09T13:31:53.045Z,21.80
2023-05-09T13:34:16.601Z,21.90
2023-05-09T13:36:40.174Z,22.30
2023-05-09T13:39:05.464Z,22.30
2023-05-09T13:41:31.869Z,22.30
2023-05-09T13:43:55.589Z,22.10
2023-05-09T13:46:19.341Z,22.30
2023-05-09T13:48:43.200Z,22.60
2023-05-09T13:51:07.914Z,22.70
2023-05-09T13:53:31.591Z,22.50
2023-05-09T13:55:57.113Z,22.50
2023-05-09T13:58:20.748Z,22.60
2023-05-09T14:00:44.291Z,22.60
2023-05-09T14:03:07.984Z,22.60
2023-05-09T14:05:33.272Z,22.60
2023-05-09T14:07:57.600Z,22.30
2023-05-09T14:10:21.889Z,22.40
2023-05-09T14:12:47.654Z,22.30
2023-05-09T14:15:12.116Z,22.10
2023-05-09T14:17:35.908Z,22.30
2023-05-09T14:19:59.911Z,22.30
2023-05-09T14:22:23.729Z,22.20
2023-05-09T14:24:47.293Z,22.20
2023-05-09T14:27:10.909Z,22.30
2023-05-09T14:29:37.594Z,22.10
2023-05-09T14:32:02.399Z,22.00
2023-05-09T14:34:26.677Z,22.00
2023-05-09T14:36:50.657Z,21.90
2023-05-09T14:39:14.256Z,22.00
2023-05-09T14:41:38.377Z,22.10
2023-05-09T14:44:01.938Z,21.80
2023-05-09T14:46:27.096Z,21.80
2023-05-09T14:48:51.536Z,21.60
2023-05-09T14:51:15.718Z,21.60
2023-05-09T14:53:41.902Z,21.50
2023-05-09T14:56:06.857Z,21.50
2023-05-09T15:01:13.333Z,21.20
2023-05-09T15:03:39.566Z,21.30
2023-05-09T15:06:03.329Z,21.10
2023-05-09T15:08:27.082Z,21.00
2023-05-09T15:10:50.949Z,20.80
2023-05-09T15:13:14.800Z,20.60
2023-05-09T15:15:39.504Z,20.50
2023-05-09T15:18:04.789Z,20.50
2023-05-09T15:20:28.615Z,20.50
2023-05-09T15:22:52.627Z,20.50
2023-05-09T15:25:17.496Z,20.50
2023-05-09T15:27:41.132Z,20.30
2023-05-09T15:30:05.668Z,20.20
2023-05-09T15:32:29.476Z,20.10
2023-05-09T15:34:54.442Z,20.10
2023-05-09T15:37:18.389Z,20.00
2023-05-09T15:39:43.594Z,19.80
2023-05-09T15:42:08.909Z,19.90
2023-05-09T15:44:32.479Z,19.90
2023-05-09T15:46:57.064Z,19.90
2023-05-09T15:49:21.458Z,19.90
2023-05-09T15:51:46.629Z,19.90
2023-05-09T15:54:10.321Z,19.90
2023-05-09T15:56:33.991Z,19.90
2023-05-09T15:58:57.504Z,19.80
2023-05-09T16:01:21.303Z,19.70
2023-05-09T16:03:45.123Z,19.60
2023-05-09T16:06:09.124Z,19.60
2023-05-09T16:08:34.135Z,19.60
2023-05-09T16:11:00.850Z,19.60
2023-05-09T16:13:24.434Z,19.60
2023-05-09T16:15:50.076Z,19.60
2023-05-09T16:18:13.775Z,19.60
2023-05-09T16:20:37.536Z,19.60
2023-05-09T16:23:01.110Z,19.60
2023-05-09T16:25:26.409Z,19.50
2023-05-09T16:27:49.944Z,19.50
2023-05-09T16:30:15.641Z,19.50
2023-05-09T16:32:39.442Z,19.40
2023-05-09T16:35:03.220Z,19.40
2023-05-09T16:37:29.114Z,19.40
2023-05-09T16:39:52.869Z,19.40
2023-05-09T16:42:17.814Z,19.30
2023-05-09T16:44:41.654Z,19.40
2023-05-09T16:47:05.192Z,19.40
2023-05-09T16:49:29.418Z,19.40
2023-05-09T16:51:52.976Z,19.30
2023-05-09T16:54:16.670Z,19.30
2023-05-09T16:56:40.228Z,19.20
2023-05-09T16:59:05.524Z,19.30
2023-05-09T17:01:29.225Z,19.20
2023-05-09T17:03:52.999Z,19.10
2023-05-09T17:06:16.660Z,19.00
2023-05-09T17:08:40.211Z,19.00
2023-05-09T17:11:04.477Z,19.00
2023-05-09T17:13:28.373Z,18.90
2023-05-09T17:15:53.566Z,18.90
2023-05-09T17:18:25.352Z,18.90
2023-05-09T17:20:53.210Z,18.80
2023-05-09T17:23:16.967Z,18.80
2023-05-09T17:25:40.712Z,18.70
2023-05-09T17:28:04.453Z,18.70
2023-05-09T17:30:28.145Z,18.70
2023-05-09T17:32:53.241Z,18.70
2023-05-09T17:35:19.404Z,18.60
2023-05-09T17:37:42.950Z,18.60
2023-05-09T17:40:08.273Z,18.50
2023-05-09T17:42:32.228Z,18.50
2023-05-09T17:44:56.527Z,18.50
2023-05-09T17:47:20.025Z,18.40
2023-05-09T17:49:45.772Z,18.40
2023-05-09T17:52:09.308Z,18.30
2023-05-09T17:54:33.010Z,18.20
2023-05-09T17:57:01.176Z,18.20
2023-05-09T17:59:24.785Z,18.10
2023-05-09T18:01:48.401Z,18.00
2023-05-09T18:04:12.883Z,18.00
2023-05-09T18:06:37.954Z,18.00
2023-05-09T18:09:01.754Z,17.90
2023-05-09T18:11:26.213Z,17.90
2023-05-09T18:13:49.963Z,17.80
2023-05-09T18:16:13.547Z,17.70
2023-05-09T18:18:37.311Z,17.70
2023-05-09T18:21:00.927Z,17.70
2023-05-09T18:23:26.726Z,17.70
2023-05-09T18:25:50.413Z,17.60
2023-05-09T18:28:14.052Z,17.60
2023-05-09T18:30:37.652Z,17.50
2023-05-09T18:33:02.579Z,17.50
2023-05-09T18:35:26.268Z,17.40
2023-05-09T18:37:49.906Z,17.40
2023-05-09T18:40:16.254Z,17.40
2023-05-09T18:42:40.009Z,17.30
2023-05-09T18:45:05.939Z,17.30
2023-05-09T18:47:29.547Z,17.20
2023-05-09T18:49:53.101Z,17.20
2023-05-09T18:52:18.916Z,17.10
2023-05-09T18:54:42.601Z,17.10
2023-05-09T18:57:08.425Z,17.00
2023-05-09T18:59:31.950Z,17.00
2023-05-09T19:01:55.716Z,17.00
2023-05-09T19:04:19.848Z,16.90
2023-05-09T19:06:44.022Z,16.90
2023-05-09T19:09:07.584Z,16.80
2023-05-09T19:11:31.234Z,16.80
2023-05-09T19:13:56.189Z,16.80
2023-05-09T19:16:21.696Z,16.70
2023-05-09T19:18:45.294Z,16.60
2023-05-09T19:21:09.537Z,16.60
2023-05-09T19:23:33.078Z,16.50
2023-05-09T19:25:57.404Z,16.50
2023-05-09T19:28:21.593Z,16.40
2023-05-09T19:30:47.268Z,16.40
2023-05-09T19:33:11.442Z,16.40
2023-05-09T19:35:36.493Z,16.40
2023-05-09T19:38:00.147Z,16.30
2023-05-09T19:40:23.834Z,16.30
2023-05-09T19:42:47.401Z,16.30
2023-05-09T19:45:12.611Z,16.30
2023-05-09T19:47:37.571Z,16.20
2023-05-09T19:50:02.118Z,16.20
2023-05-09T19:52:25.689Z,16.20
2023-05-09T19:54:49.486Z,16.10
2023-05-09T19:57:13.305Z,16.10
2023-05-09T19:59:37.031Z,16.10
2023-05-09T20:02:00.891Z,16.00
2023-05-09T20:04:25.940Z,15.90
2023-05-09T20:06:49.528Z,15.90
2023-05-09T20:09:13.459Z,15.80
2023-05-09T20:11:37.000Z,15.80
2023-05-09T20:14:00.633Z,15.80
2023-05-09T20:16:24.267Z,15.70
2023-05-09T20:18:49.073Z,15.70
2023-05-09T20:21:15.747Z,15.60
2023-05-09T20:23:39.813Z,15.60
2023-05-09T20:26:03.620Z,15.50
2023-05-09T20:28:27.322Z,15.50
2023-05-09T20:30:51.060Z,15.50
2023-05-09T20:33:14.806Z,15.50
2023-05-09T20:35:39.723Z,15.50
2023-05-09T20:38:05.165Z,15.40
2023-05-09T20:40:28.854Z,15.40
2023-05-09T20:42:52.757Z,15.40
2023-05-09T20:45:16.276Z,15.40
2023-05-09T20:47:40.686Z,15.40
2023-05-09T20:50:04.245Z,15.30
2023-05-09T20:52:27.938Z,15.20
2023-05-09T20:54:52.950Z,15.20
2023-05-09T20:57:16.606Z,15.20
2023-05-09T20:59:40.198Z,15.20
2023-05-09T21:02:03.871Z,15.20
2023-05-09T21:04:27.524Z,15.10
2023-05-09T21:06:51.228Z,15.00
2023-05-09T21:09:14.863Z,15.00
2023-05-09T21:11:39.912Z,14.90
2023-05-09T21:14:03.486Z,14.90
2023-05-09T21:16:28.282Z,14.90
2023-05-09T21:18:51.839Z,14.90
2023-05-09T21:21:15.477Z,14.80
2023-05-09T21:23:39.058Z,14.80
2023-05-09T21:26:03.376Z,14.80
2023-05-09T21:28:28.302Z,14.80
2023-05-09T21:30:53.048Z,14.80
2023-05-09T21:33:16.673Z,14.70
2023-05-09T21:35:40.365Z,14.70
2023-05-09T21:38:03.870Z,14.70
2023-05-09T21:40:27.668Z,14.70
2023-05-09T21:42:51.215Z,14.60
2023-05-09T21:45:16.630Z,14.60
2023-05-09T21:47:40.748Z,14.60
2023-05-09T21:50:05.281Z,14.60
2023-05-09T21:52:28.844Z,14.50
2023-05-09T21:54:52.396Z,14.40
2023-05-09T21:57:16.034Z,14.50
2023-05-09T21:59:39.715Z,14.40
2023-05-09T22:02:04.690Z,14.40
2023-05-09T22:04:28.354Z,14.40
2023-05-09T22:06:51.913Z,14.40
2023-05-09T22:09:15.642Z,14.30
2023-05-09T22:11:39.796Z,14.30
2023-05-09T22:14:03.599Z,14.30
2023-05-09T22:16:27.349Z,14.30
2023-05-09T22:18:52.406Z,14.20
2023-05-09T22:21:15.945Z,14.30
2023-05-09T22:23:39.665Z,14.20
2023-05-09T22:26:04.421Z,14.20
2023-05-09T22:28:28.286Z,14.10
2023-05-09T22:30:51.866Z,14.10
2023-05-09T22:33:15.535Z,14.10
2023-05-09T22:35:40.752Z,14.00
2023-05-09T22:38:04.366Z,14.00
2023-05-09T22:40:28.796Z,14.10
2023-05-09T22:42:53.483Z,14.00
2023-05-09T22:45:17.069Z,14.00
2023-05-09T22:47:40.696Z,13.90
2023-05-09T22:50:04.296Z,14.00
2023-05-09T22:52:29.298Z,13.90
2023-05-09T22:54:52.859Z,13.90
2023-05-09T22:57:18.055Z,13.90
2023-05-09T22:59:41.584Z,13.80
2023-05-09T23:02:05.495Z,13.70
2023-05-09T23:04:29.076Z,13.70
2023-05-09T23:06:52.733Z,13.70
2023-05-09T23:09:17.724Z,13.60
2023-05-09T23:11:41.366Z,13.60
2023-05-09T23:14:05.452Z,13.60
2023-05-09T23:16:29.037Z,13.60
2023-05-09T23:18:52.659Z,13.50
2023-05-09T23:21:16.185Z,13.50
2023-05-09T23:23:39.757Z,13.50
2023-05-09T23:26:04.846Z,13.50
2023-05-09T23:28:28.422Z,13.40
2023-05-09T23:30:52.273Z,13.30
2023-05-09T23:33:16.328Z,13.30
2023-05-09T23:35:40.024Z,13.30
2023-05-09T23:38:04.425Z,13.30
2023-05-09T23:40:28.131Z,13.30
2023-05-09T23:42:53.044Z,13.30
2023-05-09T23:45:16.756Z,13.20
2023-05-09T23:47:40.308Z,13.20
2023-05-09T23:50:04.024Z,13.20
2023-05-09T23:52:27.559Z,13.20
2023-05-09T23:54:51.277Z,13.20
2023-05-09T23:57:14.808Z,13.10
2023-05-09T23:59:39.893Z,13.10
